Decoded Metar for EINN (SHANNON in IRELAND) (IATA:SNN) | Meteo·Mobile Aviation Weather
aviador You're here:

EINN Decoded Metar

SHANNON in IRELAND
Report Time2018-09-22 03:30:00
UTC Time2018-09-22 03:46:17
Flight Rules vfr VFR
Wind150° at 04 kt
W.Decomp.*RWY 24: 0.3 kt HW 4 kt LCW
W.Rank150° ranks 9
Current wind is below 150° avg. (10.2)
Visibility9999 m
Phenomena:N/A
Clouds:Scattered 025 Hf
Broken 040 Hf
Overcast 080 Hf
Expected CloudBase > 400 ft AGL from Temp-Dew spread
Ceiling4,000 ft
Temp09°C (ISA -6)
Dew Point08°C (94% RH)
AAT7.1°C
QNH1017 hPa
Density Alt-630 ft
Elevation66 ft
Report Wrong Elevation
Raw Report
METAR EINN 220330Z 15004KT 9999 SCT025 BKN040 OVC080 09/08 Q1017 NOSIG=

Extra information for EINN:More info

Metar Taf Metar & Taf Last 4 Metars F.Rules Stats Wind Profile Meteogram Temp Stats Airport Information Weather charts Add Link Nearby VenuesMetar ALERT Operation Metar Decoded Social comments